createdAt,value
2023-02-23T00:00:19.594Z,100499.78
2023-02-23T00:03:05.483Z,100498.19
2023-02-23T00:05:50.829Z,100507.03
2023-02-23T00:08:37.135Z,100501.31
2023-02-23T00:11:23.477Z,100501.41
2023-02-23T00:14:08.912Z,100496.56
2023-02-23T00:16:55.675Z,100493.97
2023-02-23T00:19:40.816Z,100491.47
2023-02-23T00:22:25.886Z,100493.13
2023-02-23T00:25:11.520Z,100492.72
2023-02-23T00:27:56.477Z,100491.72
2023-02-23T00:30:41.522Z,100490.84
2023-02-23T00:33:26.388Z,100486.19
2023-02-23T00:36:13.808Z,100487.59
2023-02-23T00:39:00.798Z,100479.63
2023-02-23T00:41:46.253Z,100477.88
2023-02-23T00:44:31.506Z,100482.19
2023-02-23T00:47:17.899Z,100481.59
2023-02-23T00:50:03.310Z,100487.09
2023-02-23T00:52:48.203Z,100488.53
2023-02-23T00:55:33.086Z,100491.47
2023-02-23T00:58:18.034Z,100491.41
2023-02-23T01:01:07.648Z,100496.25
2023-02-23T01:03:53.276Z,100490.25
2023-02-23T01:06:39.799Z,100503.13
2023-02-23T01:09:28.074Z,100501.22
2023-02-23T01:12:13.161Z,100501.22
2023-02-23T01:14:58.694Z,100503.16
2023-02-23T01:17:49.971Z,100500.78
2023-02-23T01:20:36.290Z,100503.31
2023-02-23T01:23:21.503Z,100500.50
2023-02-23T01:26:06.319Z,100505.59
2023-02-23T01:28:57.511Z,100503.59
2023-02-23T01:31:46.214Z,100507.75
2023-02-23T01:34:31.226Z,100512.84
2023-02-23T01:37:16.143Z,100507.53
2023-02-23T01:40:01.723Z,100510.44
2023-02-23T01:42:46.828Z,100506.66
2023-02-23T01:45:36.090Z,100505.88
2023-02-23T01:48:24.388Z,100509.94
2023-02-23T01:51:13.578Z,100504.06
2023-02-23T01:54:06.897Z,100493.00
2023-02-23T01:56:54.903Z,100501.03
2023-02-23T01:59:52.765Z,100509.38
2023-02-23T02:02:37.854Z,100509.31
2023-02-23T02:05:23.730Z,100501.41
2023-02-23T02:08:10.388Z,100503.28
2023-02-23T02:10:56.094Z,100508.59
2023-02-23T02:13:40.999Z,100507.00
2023-02-23T02:16:34.172Z,100495.69
2023-02-23T02:19:56.295Z,100499.72
2023-02-23T02:22:58.956Z,100497.94
2023-02-23T02:25:47.041Z,100503.47
2023-02-23T02:28:57.391Z,100505.56
2023-02-23T02:32:03.934Z,100500.44
2023-02-23T02:35:04.543Z,100492.59
2023-02-23T02:37:52.856Z,100483.84
2023-02-23T02:40:42.820Z,100494.97
2023-02-23T02:43:42.974Z,100493.41
2023-02-23T02:46:37.926Z,100491.66
2023-02-23T02:49:31.421Z,100490.16
2023-02-23T02:52:43.019Z,100489.81
2023-02-23T02:55:32.043Z,100488.75
2023-02-23T02:58:18.326Z,100483.53
2023-02-23T03:01:12.060Z,100486.22
2023-02-23T03:03:58.688Z,100486.47
2023-02-23T03:07:00.105Z,100487.34
2023-02-23T03:10:02.034Z,100486.59
2023-02-23T03:13:35.335Z,100486.47
2023-02-23T03:16:30.836Z,100483.78
2023-02-23T03:19:27.918Z,100483.66
2023-02-23T03:22:22.025Z,100487.09
2023-02-23T03:25:19.938Z,100487.09
2023-02-23T03:28:21.774Z,100487.22
2023-02-23T03:31:10.008Z,100488.00
2023-02-23T03:33:59.715Z,100498.34
2023-02-23T03:36:51.689Z,100497.66
2023-02-23T03:39:50.662Z,100495.56
2023-02-23T03:42:37.981Z,100493.63
2023-02-23T03:45:26.332Z,100496.41
2023-02-23T03:48:13.561Z,100497.41
2023-02-23T03:51:05.368Z,100497.41
2023-02-23T03:54:05.988Z,100496.56
2023-02-23T03:56:55.939Z,100497.47
2023-02-23T03:59:53.585Z,100496.69
2023-02-23T04:02:41.774Z,100501.84
2023-02-23T04:05:29.595Z,100493.19
2023-02-23T04:08:19.472Z,100496.56
2023-02-23T04:11:19.905Z,100496.47
2023-02-23T04:14:14.584Z,100493.09
2023-02-23T04:17:02.404Z,100502.56
2023-02-23T04:19:52.800Z,100509.22
2023-02-23T04:22:38.099Z,100505.72
2023-02-23T04:25:23.107Z,100498.84
2023-02-23T04:28:08.420Z,100499.84
2023-02-23T04:30:54.296Z,100508.53
2023-02-23T04:33:39.494Z,100504.16
2023-02-23T04:36:24.491Z,100501.63
2023-02-23T04:39:09.431Z,100506.78
2023-02-23T04:41:54.808Z,100500.78
2023-02-23T04:44:39.925Z,100502.44
2023-02-23T04:47:25.005Z,100499.88
2023-02-23T04:50:11.494Z,100499.13
2023-02-23T04:52:56.714Z,100506.00
2023-02-23T04:55:42.273Z,100506.94
2023-02-23T04:58:27.504Z,100498.13
2023-02-23T05:01:12.733Z,100504.06
2023-02-23T05:03:58.852Z,100505.00
2023-02-23T05:06:44.181Z,100500.56
2023-02-23T05:09:30.430Z,100510.81
2023-02-23T05:12:15.637Z,100509.03
2023-02-23T05:15:00.999Z,100496.06
2023-02-23T05:17:45.908Z,100508.09
2023-02-23T05:20:31.451Z,100511.59
2023-02-23T05:23:16.943Z,100503.94
2023-02-23T05:26:04.734Z,100513.38
2023-02-23T05:28:49.601Z,100506.38
2023-02-23T05:31:34.794Z,100509.53
2023-02-23T05:34:19.946Z,100513.91
2023-02-23T05:37:05.362Z,100504.41
2023-02-23T05:39:50.614Z,100506.88
2023-02-23T05:42:35.459Z,100503.47
2023-02-23T05:45:20.771Z,100502.66
2023-02-23T05:48:06.469Z,100511.22
2023-02-23T05:50:51.901Z,100514.75
2023-02-23T05:53:37.944Z,100512.34
2023-02-23T05:56:25.841Z,100516.22
2023-02-23T05:59:11.029Z,100511.91
2023-02-23T06:01:56.244Z,100513.44
2023-02-23T06:04:41.621Z,100516.22
2023-02-23T06:07:26.778Z,100525.00
2023-02-23T06:10:12.312Z,100529.22
2023-02-23T06:12:57.571Z,100524.03
2023-02-23T06:15:44.466Z,100535.13
2023-02-23T06:18:29.983Z,100535.31
2023-02-23T06:21:15.435Z,100531.81
2023-02-23T06:24:00.845Z,100537.97
2023-02-23T06:26:47.592Z,100540.41
2023-02-23T06:29:33.305Z,100540.53
2023-02-23T06:32:18.665Z,100538.94
2023-02-23T06:35:05.478Z,100539.81
2023-02-23T06:37:50.471Z,100543.19
2023-02-23T06:40:53.905Z,100547.81
2023-02-23T06:43:39.049Z,100548.53
2023-02-23T06:46:24.930Z,100550.19
2023-02-23T06:49:11.749Z,100558.72
2023-02-23T06:51:56.886Z,100558.00
2023-02-23T06:54:42.505Z,100567.44
2023-02-23T06:57:27.701Z,100563.25
2023-02-23T07:00:13.661Z,100571.88
2023-02-23T07:02:58.935Z,100579.59
2023-02-23T07:05:44.857Z,100572.72
2023-02-23T07:08:30.220Z,100565.91
2023-02-23T07:11:15.862Z,100569.28
2023-02-23T07:14:01.742Z,100580.53
2023-02-23T07:16:47.475Z,100579.78
2023-02-23T07:19:32.843Z,100583.19
2023-02-23T07:22:17.929Z,100583.22
2023-02-23T07:25:03.381Z,100578.81
2023-02-23T07:27:48.823Z,100584.94
2023-02-23T07:30:33.941Z,100577.91
2023-02-23T07:33:18.942Z,100584.94
2023-02-23T07:36:04.491Z,100583.06
2023-02-23T07:38:50.210Z,100586.81
2023-02-23T07:41:35.698Z,100589.44
2023-02-23T07:44:23.932Z,100590.28
2023-02-23T07:47:13.367Z,100595.38
2023-02-23T07:49:59.778Z,100593.53
2023-02-23T07:52:44.986Z,100595.25
2023-02-23T07:55:30.492Z,100594.44
2023-02-23T07:58:18.098Z,100602.31
2023-02-23T08:01:04.451Z,100611.91
2023-02-23T08:03:49.672Z,100606.69
2023-02-23T08:06:35.219Z,100610.19
2023-02-23T08:09:20.898Z,100613.56
2023-02-23T08:12:06.584Z,100609.19
2023-02-23T08:14:57.205Z,100610.97
2023-02-23T08:17:42.194Z,100608.31
2023-02-23T08:20:27.346Z,100604.78
2023-02-23T08:23:19.198Z,100603.09
2023-02-23T08:26:04.676Z,100599.56
2023-02-23T08:28:53.036Z,100613.41
2023-02-23T08:31:38.216Z,100615.25
2023-02-23T08:34:23.376Z,100617.94
2023-02-23T08:37:08.986Z,100613.63
2023-02-23T08:39:54.305Z,100624.94
2023-02-23T08:42:40.373Z,100620.81
2023-02-23T08:45:25.807Z,100624.22
2023-02-23T08:48:11.054Z,100622.63
2023-02-23T08:50:57.886Z,100620.84
2023-02-23T08:53:43.252Z,100620.72
2023-02-23T08:56:28.406Z,100624.28
2023-02-23T08:59:14.628Z,100625.09
2023-02-23T09:01:59.489Z,100624.16
2023-02-23T09:05:03.485Z,100629.28
2023-02-23T09:07:56.379Z,100635.41
2023-02-23T09:10:41.757Z,100631.94
2023-02-23T09:13:27.470Z,100638.81
2023-02-23T09:16:12.700Z,100637.16
2023-02-23T09:18:57.993Z,100639.75
2023-02-23T09:21:43.981Z,100639.88
2023-02-23T09:24:29.088Z,100639.03
2023-02-23T09:27:14.580Z,100643.25
2023-02-23T09:29:59.979Z,100639.88
2023-02-23T09:32:45.413Z,100640.06
2023-02-23T09:35:30.506Z,100639.09
2023-02-23T09:38:16.068Z,100646.75
2023-02-23T09:41:01.152Z,100632.16
2023-02-23T09:43:55.892Z,100648.38
2023-02-23T09:47:11.666Z,100643.47
2023-02-23T09:49:59.874Z,100651.31
2023-02-23T09:52:49.691Z,100648.94
2023-02-23T09:55:44.489Z,100653.28
2023-02-23T09:58:33.158Z,100654.03
2023-02-23T10:01:47.803Z,100650.72
2023-02-23T10:04:36.187Z,100649.34
2023-02-23T10:07:34.570Z,100653.25
2023-02-23T10:10:48.244Z,100656.69
2023-02-23T10:13:57.617Z,100648.22
2023-02-23T10:17:15.473Z,100649.19
2023-02-23T10:20:11.244Z,100655.03
2023-02-23T10:23:04.628Z,100659.28
2023-02-23T10:25:56.235Z,100660.25
2023-02-23T10:28:41.569Z,100657.66
2023-02-23T10:31:33.143Z,100660.31
2023-02-23T10:34:18.956Z,100662.78
2023-02-23T10:37:06.840Z,100662.94
2023-02-23T10:39:53.103Z,100676.84
2023-02-23T10:42:39.069Z,100660.25
2023-02-23T10:45:26.228Z,100661.19
2023-02-23T10:48:20.730Z,100664.69
2023-02-23T10:51:12.805Z,100665.28
2023-02-23T10:54:05.000Z,100659.38
2023-02-23T10:56:52.910Z,100656.28
2023-02-23T10:59:38.124Z,100659.38
2023-02-23T11:02:25.933Z,100659.38
2023-02-23T11:05:31.736Z,100662.72
2023-02-23T11:08:34.426Z,100668.06
2023-02-23T11:11:25.278Z,100670.09
2023-02-23T11:14:17.003Z,100665.22
2023-02-23T11:17:02.154Z,100665.13
2023-02-23T11:19:47.465Z,100661.06
2023-02-23T11:22:37.202Z,100658.47
2023-02-23T11:25:30.738Z,100663.31
2023-02-23T11:28:19.088Z,100660.06
2023-02-23T11:31:15.524Z,100657.41
2023-02-23T11:34:06.133Z,100656.63
2023-02-23T11:37:06.882Z,100647.41
2023-02-23T11:40:00.916Z,100646.38
2023-02-23T11:43:06.410Z,100653.63
2023-02-23T11:45:58.331Z,100645.97
2023-02-23T11:48:59.110Z,100656.56
2023-02-23T11:51:48.917Z,100649.44
2023-02-23T11:54:35.529Z,100644.25
2023-02-23T11:57:23.192Z,100648.41
2023-02-23T12:00:21.383Z,100648.38
2023-02-23T12:03:07.809Z,100649.72
2023-02-23T12:05:58.177Z,100650.47
2023-02-23T12:08:48.106Z,100654.75
2023-02-23T12:11:39.444Z,100642.31
2023-02-23T12:14:41.177Z,100643.59
2023-02-23T12:17:47.166Z,100643.59
2023-02-23T12:20:40.762Z,100641.13
2023-02-23T12:23:32.504Z,100638.34
2023-02-23T12:26:20.983Z,100636.44
2023-02-23T12:29:15.979Z,100631.53
2023-02-23T12:32:08.925Z,100632.47
2023-02-23T12:35:18.863Z,100629.09
2023-02-23T12:38:41.725Z,100630.94
2023-02-23T12:41:38.868Z,100632.78
2023-02-23T12:44:37.426Z,100638.13
2023-02-23T12:47:40.869Z,100635.44
2023-02-23T12:50:31.425Z,100632.34
2023-02-23T12:53:32.873Z,100630.09
2023-02-23T12:56:24.306Z,100631.63
2023-02-23T12:59:28.621Z,100633.84
2023-02-23T13:02:32.696Z,100638.31
2023-02-23T13:05:32.128Z,100638.53
2023-02-23T13:08:41.917Z,100638.97
2023-02-23T13:11:51.510Z,100633.75
2023-02-23T13:14:42.880Z,100633.06
2023-02-23T13:17:31.322Z,100629.63
2023-02-23T13:20:19.661Z,100630.56
2023-02-23T13:23:28.455Z,100631.44
2023-02-23T13:26:22.226Z,100634.00
2023-02-23T13:29:17.014Z,100631.41
2023-02-23T13:32:04.674Z,100637.56
2023-02-23T13:34:56.208Z,100637.16
2023-02-23T13:37:54.607Z,100631.88
2023-02-23T13:41:03.546Z,100635.47
2023-02-23T13:44:03.573Z,100634.53
2023-02-23T13:47:00.043Z,100638.50
2023-02-23T13:49:54.687Z,100630.28
2023-02-23T13:52:43.222Z,100638.16
2023-02-23T13:55:39.994Z,100632.09
2023-02-23T13:58:32.693Z,100632.41
2023-02-23T14:01:23.061Z,100629.03
2023-02-23T14:04:15.768Z,100637.41
2023-02-23T14:07:13.812Z,100636.38
2023-02-23T14:10:07.207Z,100641.06
2023-02-23T14:13:08.016Z,100651.50
2023-02-23T14:16:12.588Z,100653.22
2023-02-23T14:19:03.939Z,100656.78
2023-02-23T14:22:00.759Z,100655.00
2023-02-23T14:24:46.392Z,100657.38
2023-02-23T14:27:44.168Z,100656.59
2023-02-23T14:30:43.626Z,100656.66
2023-02-23T14:33:38.142Z,100670.25
2023-02-23T14:36:23.557Z,100658.91
2023-02-23T14:39:16.939Z,100670.19
2023-02-23T14:42:06.777Z,100663.78
2023-02-23T14:44:54.170Z,100665.28
2023-02-23T14:47:47.147Z,100676.75
2023-02-23T14:50:35.345Z,100675.78
2023-02-23T14:53:23.459Z,100674.97
2023-02-23T14:56:22.142Z,100669.72
2023-02-23T14:59:08.587Z,100683.22
2023-02-23T15:01:54.896Z,100679.03
2023-02-23T15:04:40.143Z,100679.81
2023-02-23T15:07:28.128Z,100678.91
2023-02-23T15:10:37.466Z,100684.94
2023-02-23T15:13:32.057Z,100689.44
2023-02-23T15:16:37.058Z,100686.94
2023-02-23T15:19:25.056Z,100692.31
2023-02-23T15:22:23.065Z,100691.56
2023-02-23T15:25:17.658Z,100695.13
2023-02-23T15:28:24.592Z,100690.03
2023-02-23T15:31:10.397Z,100690.09
2023-02-23T15:33:55.656Z,100687.66
2023-02-23T15:36:41.547Z,100691.09
2023-02-23T15:39:51.559Z,100704.16
2023-02-23T15:42:39.697Z,100697.09
2023-02-23T15:45:31.161Z,100696.31
2023-02-23T15:48:21.026Z,100701.38
2023-02-23T15:51:06.146Z,100694.56
2023-02-23T15:53:52.069Z,100692.59
2023-02-23T15:56:37.326Z,100686.94
2023-02-23T15:59:28.486Z,100682.09
2023-02-23T16:02:17.263Z,100679.53
2023-02-23T16:05:24.008Z,100682.19
2023-02-23T16:08:20.114Z,100693.38
2023-02-23T16:11:17.127Z,100683.00
2023-02-23T16:14:05.701Z,100681.19
2023-02-23T16:17:08.379Z,100689.13
2023-02-23T16:20:26.796Z,100683.78
2023-02-23T16:23:35.433Z,100678.63
2023-02-23T16:26:27.391Z,100683.03
2023-02-23T16:29:17.599Z,100673.38
2023-02-23T16:32:10.661Z,100679.53
2023-02-23T16:35:01.018Z,100683.88
2023-02-23T16:38:00.940Z,100683.75
2023-02-23T16:40:46.267Z,100675.69
2023-02-23T16:43:33.583Z,100681.84
2023-02-23T16:46:22.799Z,100684.47
2023-02-23T16:49:12.241Z,100683.56
2023-02-23T16:51:59.510Z,100687.78
2023-02-23T16:54:45.040Z,100676.78
2023-02-23T16:57:39.137Z,100685.31
2023-02-23T17:00:32.706Z,100681.84
2023-02-23T17:03:28.040Z,100686.13
2023-02-23T17:06:13.650Z,100686.13
2023-02-23T17:08:58.947Z,100688.81
2023-02-23T17:11:44.091Z,100695.56
2023-02-23T17:14:29.589Z,100699.09
2023-02-23T17:17:19.394Z,100699.00
2023-02-23T17:20:05.421Z,100699.19
2023-02-23T17:22:51.169Z,100698.13
2023-02-23T17:25:36.747Z,100715.22
2023-02-23T17:28:22.117Z,100716.03
2023-02-23T17:31:09.072Z,100713.34
2023-02-23T17:33:54.609Z,100722.03
2023-02-23T17:36:39.879Z,100722.97
2023-02-23T17:39:25.406Z,100727.22
2023-02-23T17:42:10.610Z,100720.38
2023-02-23T17:44:55.980Z,100723.91
2023-02-23T17:47:41.283Z,100725.53
2023-02-23T17:50:26.848Z,100724.66
2023-02-23T17:53:11.876Z,100729.72
2023-02-23T17:55:58.384Z,100726.41
2023-02-23T17:58:43.679Z,100733.28
2023-02-23T18:01:28.957Z,100731.53
2023-02-23T18:04:14.462Z,100733.19
2023-02-23T18:06:59.602Z,100726.41
2023-02-23T18:09:46.105Z,100730.84
2023-02-23T18:12:32.408Z,100730.84
2023-02-23T18:15:17.540Z,100729.47
2023-02-23T18:18:02.852Z,100725.63
2023-02-23T18:20:53.448Z,100732.63
2023-02-23T18:23:39.607Z,100726.69
2023-02-23T18:26:25.278Z,100733.94
2023-02-23T18:29:10.764Z,100733.06
2023-02-23T18:31:57.279Z,100733.25
2023-02-23T18:34:42.353Z,100731.69
2023-02-23T18:37:27.557Z,100737.78
2023-02-23T18:40:13.127Z,100734.44
2023-02-23T18:42:58.848Z,100738.00
2023-02-23T18:45:44.377Z,100734.28
2023-02-23T18:48:29.514Z,100737.63
2023-02-23T18:51:14.795Z,100741.50
2023-02-23T18:54:00.305Z,100741.47
2023-02-23T18:56:47.199Z,100743.28
2023-02-23T18:59:33.409Z,100744.06
2023-02-23T19:02:18.739Z,100739.03
2023-02-23T19:05:04.492Z,100743.38
2023-02-23T19:07:49.597Z,100739.59
2023-02-23T19:10:34.899Z,100738.00
2023-02-23T19:13:20.407Z,100737.38
2023-02-23T19:16:07.103Z,100744.28
2023-02-23T19:18:52.321Z,100737.09
2023-02-23T19:21:38.138Z,100752.03
2023-02-23T19:24:23.469Z,100732.09
2023-02-23T19:27:08.381Z,100740.13
2023-02-23T19:29:53.752Z,100737.31
2023-02-23T19:32:39.342Z,100733.47
2023-02-23T19:35:24.493Z,100726.75
2023-02-23T19:38:10.619Z,100739.38
2023-02-23T19:40:56.001Z,100734.53
2023-02-23T19:43:41.527Z,100737.94
2023-02-23T19:46:27.287Z,100736.25
2023-02-23T19:49:12.179Z,100740.63
2023-02-23T19:51:57.749Z,100738.44
2023-02-23T19:54:43.205Z,100743.59
2023-02-23T19:57:28.259Z,100742.97
2023-02-23T20:00:14.235Z,100745.44
2023-02-23T20:02:59.188Z,100751.50
2023-02-23T20:05:44.160Z,100741.75
2023-02-23T20:08:29.644Z,100748.72
2023-02-23T20:11:15.209Z,100744.72
2023-02-23T20:14:01.078Z,100749.94
2023-02-23T20:16:46.333Z,100750.13
2023-02-23T20:19:31.978Z,100751.06
2023-02-23T20:22:20.609Z,100764.97
2023-02-23T20:25:06.026Z,100755.84
2023-02-23T20:27:51.273Z,100762.78
2023-02-23T20:30:36.709Z,100754.22
2023-02-23T20:33:22.326Z,100753.69
2023-02-23T20:36:08.036Z,100753.16
2023-02-23T20:38:53.160Z,100756.38
2023-02-23T20:41:38.637Z,100759.41
2023-02-23T20:44:24.380Z,100762.44
2023-02-23T20:47:09.618Z,100766.13
2023-02-23T20:49:54.775Z,100766.16
2023-02-23T20:52:41.570Z,100758.88
2023-02-23T20:55:27.549Z,100762.72
2023-02-23T20:58:12.960Z,100769.09
2023-02-23T21:00:58.436Z,100764.09
2023-02-23T21:03:44.145Z,100773.41
2023-02-23T21:06:30.829Z,100759.75
2023-02-23T21:13:23.334Z,100760.28
2023-02-23T21:16:12.397Z,100752.66
2023-02-23T21:18:57.951Z,100747.53
2023-02-23T21:21:43.076Z,100743.84
2023-02-23T21:24:28.550Z,100735.31
2023-02-23T21:27:13.797Z,100733.63
2023-02-23T21:29:58.954Z,100733.53
2023-02-23T21:32:44.133Z,100729.66
2023-02-23T21:35:29.455Z,100727.84
2023-02-23T21:38:14.380Z,100727.22
2023-02-23T21:40:59.264Z,100728.19
2023-02-23T21:43:45.305Z,100726.44
2023-02-23T21:46:30.431Z,100719.28
2023-02-23T21:49:16.594Z,100713.22
2023-02-23T21:52:02.696Z,100719.22
2023-02-23T21:54:49.915Z,100710.88
2023-02-23T21:57:35.350Z,100702.94
2023-02-23T22:00:20.761Z,100708.16
2023-02-23T22:03:05.959Z,100707.13
2023-02-23T22:05:51.249Z,100712.81
2023-02-23T22:08:36.271Z,100707.56
2023-02-23T22:11:25.222Z,100701.38
2023-02-23T22:14:10.460Z,100706.00
2023-02-23T22:16:55.676Z,100714.16
2023-02-23T22:19:41.035Z,100720.44
2023-02-23T22:22:26.367Z,100712.16
2023-02-23T22:25:11.900Z,100706.88
2023-02-23T22:27:56.923Z,100715.78
2023-02-23T22:30:42.373Z,100709.72
2023-02-23T22:33:27.336Z,100720.13
2023-02-23T22:36:13.983Z,100711.94
2023-02-23T22:39:00.274Z,100706.13
2023-02-23T22:41:46.689Z,100703.13
2023-02-23T22:44:31.952Z,100703.94
2023-02-23T22:47:17.257Z,100711.59
2023-02-23T22:50:02.909Z,100700.56
2023-02-23T22:52:48.150Z,100701.13
2023-02-23T22:55:33.868Z,100700.56
2023-02-23T22:58:19.217Z,100691.41
2023-02-23T23:01:05.215Z,100682.66
2023-02-23T23:03:50.509Z,100683.81
2023-02-23T23:06:40.708Z,100682.81
2023-02-23T23:09:25.819Z,100668.69
2023-02-23T23:12:10.817Z,100676.00
2023-02-23T23:14:56.542Z,100669.06
2023-02-23T23:17:42.888Z,100663.19
2023-02-23T23:20:28.143Z,100667.13
2023-02-23T23:23:13.486Z,100666.72
2023-02-23T23:25:58.834Z,100668.59
2023-02-23T23:28:49.869Z,100670.88
2023-02-23T23:31:35.855Z,100664.56
2023-02-23T23:34:21.084Z,100669.97
2023-02-23T23:37:06.702Z,100664.69
2023-02-23T23:39:51.933Z,100667.09
2023-02-23T23:42:36.838Z,100673.50
2023-02-23T23:45:21.779Z,100665.50
2023-02-23T23:48:07.062Z,100666.09
2023-02-23T23:50:52.438Z,100665.31
2023-02-23T23:53:37.532Z,100671.16
2023-02-23T23:56:23.282Z,100667.84
2023-02-23T23:59:11.703Z,100668.59
